Time;durP1;ratioP1;P1;durP2;ratioP2;P2;SDS_P1;SDS_P2;PMS_P1;PMS_P2;Temp;Humidity;BMP_temperature;BMP_pressure;BME280_temperature;BME280_humidity;BME280_pressure;Samples;Min_cycle;Max_cycle;Signal;HPM_P1;HPM_P2
2023/06/13 05:15:16;;;;;;;;;;;;;;;23.04;44.75;96228.84;4253081;27;10346;-63
2023/06/13 05:17:19;;;;;;;;;;;;;;;23.36;44.21;96227.41;4246018;27;5837;-63
2023/06/13 05:19:23;;;;;;;;;;;;;;;23.61;43.94;96234.41;4242063;27;5732;-64
2023/06/13 05:21:26;;;;;;;;;;;;;;;23.78;43.74;96234.72;4242455;27;5671;-65
2023/06/13 05:23:29;;;;;;;;;;;;;;;23.92;43.23;96232.13;4239337;27;5765;-65
2023/06/13 05:25:32;;;;;;;;;;;;;;;24.00;43.25;96229.53;4246460;27;5641;-63
2023/06/13 05:27:36;;;;;;;;;;;;;;;24.13;43.52;96233.44;4232209;28;5767;-63
2023/06/13 05:29:39;;;;;;;;;;;;;;;24.23;43.22;96227.84;4237056;27;5709;-64
2023/06/13 05:31:43;;;;;;;;;;;;;;;24.30;43.24;96233.72;4245983;27;5715;-64
2023/06/13 05:33:47;;;;;;;;;;;;;;;24.32;42.96;96236.13;4239952;27;5529;-64
2023/06/13 05:35:50;;;;;;;;;;;;;;;24.33;42.79;96241.22;4235896;27;5840;-64
2023/06/13 05:38:00;;;;;;;;;;;;;;;24.37;42.77;96225.25;4241605;27;5634;-63
2023/06/13 05:40:04;;;;;;;;;;;;;;;24.43;42.84;96234.88;4239660;27;5752;-75
2023/06/13 05:42:07;;;;;;;;;;;;;;;24.44;42.88;96227.56;4239867;27;6734;-75
2023/06/13 05:44:10;;;;;;;;;;;;;;;24.45;42.70;96235.38;4241733;27;5758;-76
2023/06/13 05:46:13;;;;;;;;;;;;;;;24.42;42.66;96235.97;4237625;27;5672;-77
2023/06/13 05:48:18;;;;;;;;;;;;;;;24.43;42.63;96232.16;4242840;27;6554;-77
2023/06/13 05:50:21;;;;;;;;;;;;;;;24.46;42.25;96238.88;4237818;27;5706;-76
2023/06/13 05:52:23;;;;;;;;;;;;;;;24.50;42.18;96234.50;4242246;27;5646;-76
2023/06/13 05:54:26;;;;;;;;;;;;;;;24.52;42.75;96230.41;4239221;27;5663;-77
2023/06/13 05:56:31;;;;;;;;;;;;;;;24.55;42.04;96229.81;4233186;28;5797;-77
2023/06/13 05:58:35;;;;;;;;;;;;;;;24.57;42.55;96237.59;4241881;27;5648;-76
2023/06/13 06:00:40;;;;;;;;;;;;;;;24.60;42.18;96234.34;4246591;27;5667;-77
2023/06/13 06:02:45;;;;;;;;;;;;;;;24.61;42.22;96230.53;4242828;27;5833;-76
2023/06/13 06:04:50;;;;;;;;;;;;;;;24.67;42.20;96223.94;4241127;27;5754;-76
2023/06/13 06:06:53;;;;;;;;;;;;;;;24.80;42.07;96225.84;4247318;27;5776;-77
2023/06/13 06:08:56;;;;;;;;;;;;;;;24.89;41.57;96226.78;4250041;27;5646;-77
2023/06/13 06:10:59;;;;;;;;;;;;;;;24.92;41.56;96228.91;4250341;27;5788;-77
2023/06/13 06:13:02;;;;;;;;;;;;;;;25.03;41.79;96234.97;4249567;27;7719;-78
2023/06/13 06:15:06;;;;;;;;;;;;;;;25.14;41.25;96227.44;4244359;27;5737;-76
2023/06/13 06:17:09;;;;;;;;;;;;;;;25.31;41.30;96226.84;4238926;28;5705;-77
2023/06/13 06:19:12;;;;;;;;;;;;;;;25.43;40.99;96229.84;4238426;28;5634;-76
2023/06/13 06:21:16;;;;;;;;;;;;;;;25.50;41.13;96225.66;4237886;28;5646;-77
2023/06/13 06:23:19;;;;;;;;;;;;;;;25.52;41.27;96220.72;4236682;28;5776;-77
2023/06/13 06:25:22;;;;;;;;;;;;;;;25.55;41.21;96222.03;4221333;28;5809;-77
2023/06/13 06:27:28;;;;;;;;;;;;;;;25.62;41.09;96213.50;4220807;28;5674;-77
2023/06/13 06:29:31;;;;;;;;;;;;;;;25.63;40.66;96217.81;4221199;28;5655;-77
2023/06/13 06:31:34;;;;;;;;;;;;;;;25.66;40.83;96214.50;4220922;28;5688;-77
2023/06/13 06:33:37;;;;;;;;;;;;;;;25.71;40.50;96217.09;4220742;28;5652;-77
2023/06/13 06:35:40;;;;;;;;;;;;;;;25.72;40.68;96221.44;4225295;28;5771;-77
2023/06/13 06:37:44;;;;;;;;;;;;;;;25.74;40.45;96216.53;4237653;28;5804;-76
2023/06/13 06:39:47;;;;;;;;;;;;;;;25.75;40.78;96218.91;4237929;28;5654;-75
2023/06/13 06:41:50;;;;;;;;;;;;;;;25.81;40.46;96216.88;4237747;28;5666;-76
2023/06/13 06:43:53;;;;;;;;;;;;;;;25.82;40.52;96215.78;4237725;28;5725;-76
2023/06/13 06:45:56;;;;;;;;;;;;;;;25.86;40.37;96214.09;4237578;28;5669;-76
2023/06/13 06:48:01;;;;;;;;;;;;;;;25.89;40.19;96218.88;4237714;28;5793;-76
2023/06/13 06:50:07;;;;;;;;;;;;;;;25.96;40.40;96213.88;4238506;27;5638;-76
2023/06/13 06:52:10;;;;;;;;;;;;;;;25.99;40.24;96224.06;4221592;28;5850;-76
2023/06/13 06:54:14;;;;;;;;;;;;;;;26.03;39.90;96216.13;4221768;28;5759;-75
2023/06/13 06:56:20;;;;;;;;;;;;;;;26.06;39.74;96219.06;4220895;28;5766;-77
2023/06/13 06:58:23;;;;;;;;;;;;;;;26.05;39.95;96212.03;4220847;28;5659;-76
2023/06/13 07:00:26;;;;;;;;;;;;;;;26.07;40.06;96209.81;4220854;28;5758;-76
2023/06/13 07:02:29;;;;;;;;;;;;;;;26.09;39.67;96215.72;4220571;28;5841;-76
2023/06/13 07:04:33;;;;;;;;;;;;;;;26.03;39.85;96211.50;4219819;28;5676;-75
2023/06/13 07:06:36;;;;;;;;;;;;;;;26.01;40.05;96216.44;4223762;28;5650;-76
2023/06/13 07:08:39;;;;;;;;;;;;;;;25.94;40.17;96205.25;4237485;28;7140;-76
2023/06/13 07:10:43;;;;;;;;;;;;;;;25.90;39.70;96212.34;4232527;28;5667;-76
2023/06/13 07:12:46;;;;;;;;;;;;;;;25.88;40.08;96211.06;4220524;28;5687;-76
2023/06/13 07:14:49;;;;;;;;;;;;;;;25.80;40.10;96212.59;4220563;28;5734;-77
2023/06/13 07:16:54;;;;;;;;;;;;;;;25.68;40.14;96204.16;4220387;28;5652;-77
2023/06/13 07:18:56;;;;;;;;;;;;;;;25.61;39.86;96209.19;4220640;28;5679;-77
2023/06/13 07:20:59;;;;;;;;;;;;;;;25.57;39.69;96203.56;4220184;28;5671;-76
2023/06/13 07:23:03;;;;;;;;;;;;;;;25.51;40.00;96208.31;4236285;28;5764;-77
2023/06/13 07:25:06;;;;;;;;;;;;;;;25.45;39.92;96201.38;4237163;28;5682;-77
2023/06/13 07:27:10;;;;;;;;;;;;;;;25.37;39.63;96209.41;4236517;28;5730;-77
2023/06/13 07:29:14;;;;;;;;;;;;;;;25.31;39.88;96207.91;4237276;28;5650;-76
2023/06/13 07:31:16;;;;;;;;;;;;;;;25.27;39.33;96207.72;4227471;27;5793;-75
2023/06/13 07:33:20;;;;;;;;;;;;;;;25.22;39.40;96205.91;4219795;28;5185;-76
2023/06/13 07:35:23;;;;;;;;;;;;;;;25.27;39.32;96206.94;4219482;28;5687;-75
2023/06/13 07:37:26;;;;;;;;;;;;;;;25.32;39.27;96207.59;4220073;28;5754;-76
2023/06/13 07:39:32;;;;;;;;;;;;;;;25.35;39.07;96204.28;4219747;28;5671;-76
2023/06/13 07:41:37;;;;;;;;;;;;;;;25.31;39.40;96200.59;4219748;28;5884;-76
2023/06/13 07:43:41;;;;;;;;;;;;;;;25.25;39.19;96201.78;4219370;28;5797;-68
2023/06/13 07:45:45;;;;;;;;;;;;;;;25.23;39.12;96202.09;4218619;28;5667;-67
2023/06/13 07:47:48;;;;;;;;;;;;;;;25.25;39.00;96197.19;4223689;28;5662;-67
2023/06/13 07:49:52;;;;;;;;;;;;;;;25.25;38.98;96201.78;4235343;28;5811;-68
2023/06/13 07:51:55;;;;;;;;;;;;;;;25.29;38.90;96208.22;4235537;27;5766;-68
2023/06/13 07:53:58;;;;;;;;;;;;;;;25.28;39.23;96203.91;4235498;28;5635;-68
2023/06/13 07:56:01;;;;;;;;;;;;;;;25.20;38.99;96202.69;4234959;28;5780;-68
2023/06/13 07:58:04;;;;;;;;;;;;;;;25.14;39.11;96198.50;4235219;28;5650;-68
2023/06/13 08:00:14;;;;;;;;;;;;;;;25.11;39.01;96198.28;4226474;28;5671;-69
2023/06/13 08:02:18;;;;;;;;;;;;;;;25.08;38.85;96194.28;4219401;28;5672;-68
2023/06/13 08:04:21;;;;;;;;;;;;;;;25.07;39.08;96189.19;4235145;28;5705;-68
2023/06/13 08:06:25;;;;;;;;;;;;;;;25.00;38.87;96188.75;4234597;28;5662;-68
2023/06/13 08:08:28;;;;;;;;;;;;;;;24.96;39.38;96188.53;4235040;28;6327;-69
2023/06/13 08:10:31;;;;;;;;;;;;;;;24.96;39.19;96186.63;4235126;28;5642;-68
2023/06/13 08:12:34;;;;;;;;;;;;;;;24.98;39.22;96189.03;4235135;28;5649;-68
2023/06/13 08:14:37;;;;;;;;;;;;;;;24.98;38.83;96189.84;4234925;27;5099;-68
2023/06/13 08:16:42;;;;;;;;;;;;;;;24.99;38.79;96193.34;4222132;28;5865;-69
2023/06/13 08:18:45;;;;;;;;;;;;;;;24.98;39.28;96195.25;4223256;28;5664;-67
2023/06/13 08:20:48;;;;;;;;;;;;;;;24.98;39.30;96195.25;4234695;28;5755;-69
2023/06/13 08:22:51;;;;;;;;;;;;;;;25.02;38.83;96192.78;4234860;28;5763;-69
2023/06/13 08:24:54;;;;;;;;;;;;;;;25.04;38.92;96182.47;4234830;27;5841;-69
2023/06/13 08:26:58;;;;;;;;;;;;;;;25.08;38.57;96188.09;4234833;28;5639;-69
2023/06/13 08:29:02;;;;;;;;;;;;;;;25.09;38.90;96192.38;4219134;28;5660;-69
2023/06/13 08:31:06;;;;;;;;;;;;;;;25.10;39.04;96178.56;4218077;28;5687;-69
2023/06/13 08:33:30;;;;;;;;;;;;;;;25.11;38.77;96187.47;4217722;28;5771;-69
2023/06/13 08:35:33;;;;;;;;;;;;;;;25.12;38.87;96173.66;4229444;28;6432;-69
2023/06/13 08:37:36;;;;;;;;;;;;;;;25.10;38.91;96181.25;4234721;27;5638;-69
2023/06/13 08:39:39;;;;;;;;;;;;;;;25.13;39.18;96179.84;4234586;28;6159;-69
2023/06/13 08:41:45;;;;;;;;;;;;;;;25.18;38.59;96183.28;4234733;28;5642;-69
2023/06/13 08:43:49;;;;;;;;;;;;;;;25.16;38.86;96180.06;4220559;28;5787;-69
2023/06/13 08:45:52;;;;;;;;;;;;;;;25.12;39.05;96178.25;4217629;28;5759;-69
2023/06/13 08:47:55;;;;;;;;;;;;;;;25.12;38.69;96172.84;4217624;28;5671;-68
2023/06/13 08:50:01;;;;;;;;;;;;;;;25.10;38.94;96173.16;4217442;28;5766;-68
2023/06/13 08:52:07;;;;;;;;;;;;;;;25.14;39.11;96176.03;4233882;28;5670;-68
2023/06/13 08:54:12;;;;;;;;;;;;;;;25.15;38.97;96177.69;4234777;28;5650;-68
2023/06/13 08:56:15;;;;;;;;;;;;;;;25.18;38.82;96171.66;4234739;28;5770;-68
2023/06/13 08:58:20;;;;;;;;;;;;;;;25.19;39.42;96179.47;4234550;28;5642;-68
2023/06/13 09:00:24;;;;;;;;;;;;;;;25.19;39.13;96175.97;4232730;28;5676;-68
2023/06/13 09:02:27;;;;;;;;;;;;;;;25.18;39.50;96180.56;4217641;28;5659;-68
2023/06/13 09:04:33;;;;;;;;;;;;;;;25.19;39.33;96167.84;4228767;28;5656;-67
2023/06/13 09:06:38;;;;;;;;;;;;;;;25.18;39.03;96167.03;4230390;28;5667;-69
2023/06/13 09:08:42;;;;;;;;;;;;;;;25.18;39.49;96177.06;4217564;28;5667;-68
2023/06/13 09:10:45;;;;;;;;;;;;;;;25.15;39.65;96178.47;4217625;28;5667;-69
2023/06/13 09:12:51;;;;;;;;;;;;;;;25.12;39.48;96178.25;4224134;28;5668;-68
2023/06/13 09:14:54;;;;;;;;;;;;;;;25.06;39.39;96177.56;4216881;28;5664;-68
2023/06/13 09:16:57;;;;;;;;;;;;;;;25.08;39.51;96178.06;4219105;28;5683;-70
2023/06/13 09:19:00;;;;;;;;;;;;;;;25.05;39.62;96177.88;4233989;28;5805;-69
2023/06/13 09:21:04;;;;;;;;;;;;;;;25.03;39.87;96174.66;4225501;28;5662;-69
2023/06/13 09:23:08;;;;;;;;;;;;;;;25.01;39.60;96177.66;4234411;28;5645;-75
2023/06/13 09:25:16;;;;;;;;;;;;;;;24.99;39.65;96179.81;4226425;28;5749;-75
2023/06/13 09:27:19;;;;;;;;;;;;;;;24.97;39.84;96163.91;4232414;28;6549;-75
2023/06/13 09:29:31;;;;;;;;;;;;;;;25.08;39.73;96171.84;4230178;28;5668;-77
2023/06/13 09:31:40;;;;;;;;;;;;;;;25.16;40.10;96171.16;4233531;28;5665;-76
2023/06/13 09:33:45;;;;;;;;;;;;;;;25.15;39.82;96170.34;4234323;28;5701;-76
2023/06/13 09:35:48;;;;;;;;;;;;;;;25.09;39.79;96173.44;4230787;28;5642;-75
2023/06/13 09:37:51;;;;;;;;;;;;;;;25.07;40.18;96165.66;4223606;28;5666;-75
2023/06/13 09:39:56;;;;;;;;;;;;;;;25.09;40.20;96181.56;4227878;28;5648;-76
2023/06/13 09:42:03;;;;;;;;;;;;;;;25.06;39.84;96171.34;4225338;28;5119;-76
2023/06/13 09:44:06;;;;;;;;;;;;;;;25.08;39.93;96177.25;4234413;28;5662;-76
2023/06/13 09:46:10;;;;;;;;;;;;;;;25.13;40.14;96171.75;4217195;28;6341;-75
2023/06/13 09:48:14;;;;;;;;;;;;;;;25.13;40.06;96164.44;4218205;28;5854;-77
2023/06/13 09:50:19;;;;;;;;;;;;;;;25.13;40.28;96166.34;4235092;28;5736;-76
2023/06/13 09:52:25;;;;;;;;;;;;;;;25.17;40.38;96161.94;4227369;28;5093;-77
2023/06/13 09:54:31;;;;;;;;;;;;;;;25.19;40.33;96165.13;4223313;28;7051;-76
2023/06/13 09:56:41;;;;;;;;;;;;;;;25.17;40.17;96153.81;4237348;28;5634;-76
2023/06/13 09:58:44;;;;;;;;;;;;;;;25.17;40.42;96159.25;4237423;28;5776;-76
2023/06/13 10:00:59;;;;;;;;;;;;;;;25.14;40.19;96157.13;4237600;28;5725;-76
2023/06/13 10:03:04;;;;;;;;;;;;;;;25.15;40.17;96156.03;4229658;28;5695;-75
2023/06/13 10:05:23;;;;;;;;;;;;;;;25.15;40.32;96159.53;4228350;28;5648;-75
2023/06/13 10:07:28;;;;;;;;;;;;;;;25.16;40.17;96157.63;4231182;28;5780;-76
2023/06/13 10:09:31;;;;;;;;;;;;;;;25.17;39.87;96156.53;4228503;28;5646;-75
2023/06/13 10:11:36;;;;;;;;;;;;;;;25.16;40.27;96152.22;4237212;28;5635;-75
2023/06/13 10:13:51;;;;;;;;;;;;;;;25.15;40.33;96151.44;4236836;28;5622;-75
2023/06/13 10:15:58;;;;;;;;;;;;;;;25.25;40.25;96153.09;4237013;28;5642;-75
2023/06/13 10:18:06;;;;;;;;;;;;;;;25.32;40.22;96155.41;4228843;28;5653;-75
2023/06/13 10:20:15;;;;;;;;;;;;;;;25.34;39.79;96158.59;4228491;28;5670;-75
2023/06/13 10:22:19;;;;;;;;;;;;;;;25.37;40.29;96158.00;4226115;28;5794;-75
2023/06/13 10:24:23;;;;;;;;;;;;;;;25.39;39.70;96147.69;4228687;28;5662;-75
2023/06/13 10:26:34;;;;;;;;;;;;;;;25.37;40.13;96142.59;4219866;28;5749;-75
2023/06/13 10:29:02;;;;;;;;;;;;;;;25.39;40.11;96137.66;4232243;28;5649;-75
2023/06/13 10:31:13;;;;;;;;;;;;;;;25.44;39.74;96139.44;4232375;28;6362;-75
2023/06/13 10:33:56;;;;;;;;;;;;;;;25.48;39.98;96133.16;4231346;28;5733;-75
2023/06/13 10:36:14;;;;;;;;;;;;;;;25.54;40.03;96141.94;4177620;28;5850;-75
2023/06/13 10:38:54;;;;;;;;;;;;;;;25.56;40.04;96134.31;4184514;28;5699;-75
2023/06/13 10:41:21;;;;;;;;;;;;;;;25.59;39.86;96135.59;4184405;28;5809;-75
2023/06/13 10:43:33;;;;;;;;;;;;;;;25.59;39.63;96136.41;4184322;28;5739;-75
2023/06/13 10:45:37;;;;;;;;;;;;;;;25.62;39.81;96141.22;4183319;28;5741;-75
2023/06/13 10:47:40;;;;;;;;;;;;;;;25.61;39.99;96134.22;4183936;28;6491;-68
2023/06/13 10:49:45;;;;;;;;;;;;;;;25.63;39.48;96126.59;4184127;28;5831;-68
2023/06/13 10:51:48;;;;;;;;;;;;;;;25.64;39.77;96127.38;4184350;28;5753;-68
2023/06/13 10:53:59;;;;;;;;;;;;;;;25.64;39.72;96124.69;4184113;28;5068;-68
2023/06/13 10:56:03;;;;;;;;;;;;;;;25.65;39.98;96126.28;4184223;28;5760;-69
2023/06/13 10:58:12;;;;;;;;;;;;;;;25.67;39.48;96124.06;4184036;28;5764;-68
2023/06/13 11:00:24;;;;;;;;;;;;;;;25.70;39.98;96124.28;4167512;28;5755;-68
2023/06/13 11:02:28;;;;;;;;;;;;;;;25.70;39.51;96123.47;4167659;28;5782;-68
2023/06/13 11:04:32;;;;;;;;;;;;;;;25.68;39.66;96121.03;4167574;28;5888;-68
2023/06/13 11:06:35;;;;;;;;;;;;;;;25.69;40.02;96119.13;4167023;28;5877;-68
2023/06/13 11:08:40;;;;;;;;;;;;;;;25.71;39.94;96119.66;4171113;28;5869;-67
2023/06/13 11:10:45;;;;;;;;;;;;;;;25.70;39.71;96118.84;4183504;28;5833;-68
2023/06/13 11:12:49;;;;;;;;;;;;;;;25.71;39.61;96114.25;4227731;28;5741;-68
2023/06/13 11:14:52;;;;;;;;;;;;;;;25.71;39.73;96108.81;4227078;28;6388;-68
2023/06/13 11:16:56;;;;;;;;;;;;;;;25.75;39.62;96107.13;4229368;28;5667;-68
2023/06/13 11:19:06;;;;;;;;;;;;;;;25.78;39.91;96107.31;4232023;28;5877;-68
2023/06/13 11:21:09;;;;;;;;;;;;;;;25.81;39.96;96108.59;4227336;28;5655;-69
2023/06/13 11:23:13;;;;;;;;;;;;;;;25.82;39.61;96102.06;4224933;28;5983;-69
2023/06/13 11:25:16;;;;;;;;;;;;;;;25.86;39.73;96104.97;4218546;28;5675;-68
2023/06/13 11:27:20;;;;;;;;;;;;;;;25.87;39.74;96101.97;4222790;27;5725;-69
2023/06/13 11:29:23;;;;;;;;;;;;;;;25.91;39.32;96091.31;4216117;28;5762;-69
2023/06/13 11:31:29;;;;;;;;;;;;;;;25.92;39.57;96106.44;4222993;27;5088;-68
2023/06/13 11:33:36;;;;;;;;;;;;;;;25.91;39.19;96094.81;4229921;27;5968;-69
2023/06/13 11:35:48;;;;;;;;;;;;;;;25.90;39.08;96097.84;4252471;27;5782;-69
2023/06/13 11:38:00;;;;;;;;;;;;;;;25.87;39.35;96090.34;4252794;27;5633;-69
2023/06/13 11:40:07;;;;;;;;;;;;;;;25.91;39.27;96086.69;4235778;27;5677;-69
2023/06/13 11:42:23;;;;;;;;;;;;;;;25.97;39.14;96090.88;4234914;28;5669;-70
2023/06/13 11:44:26;;;;;;;;;;;;;;;25.97;39.12;96080.06;4234711;28;6359;-69
2023/06/13 11:46:29;;;;;;;;;;;;;;;25.96;39.43;96081.16;4235303;28;5876;-69
2023/06/13 11:48:32;;;;;;;;;;;;;;;25.98;39.10;96076.25;4234003;27;6031;-69
2023/06/13 11:51:08;;;;;;;;;;;;;;;26.02;39.22;96073.69;4235149;28;5084;-69
2023/06/13 11:53:11;;;;;;;;;;;;;;;26.05;39.06;96070.41;4235214;28;5721;-68
2023/06/13 11:55:17;;;;;;;;;;;;;;;26.06;39.12;96072.78;4250685;27;5695;-69
2023/06/13 11:57:21;;;;;;;;;;;;;;;26.09;38.88;96072.16;4235069;28;5613;-69
2023/06/13 11:59:25;;;;;;;;;;;;;;;26.12;38.76;96076.16;4219430;28;5671;-70
2023/06/13 12:01:29;;;;;;;;;;;;;;;26.17;38.97;96069.84;4232918;28;5792;-69
2023/06/13 12:03:37;;;;;;;;;;;;;;;26.17;38.88;96061.69;4235166;27;5650;-69
2023/06/13 12:05:40;;;;;;;;;;;;;;;26.18;39.00;96057.88;4251828;27;5688;-68
2023/06/13 12:07:45;;;;;;;;;;;;;;;26.19;38.74;96059.47;4249622;27;5634;-68
2023/06/13 12:09:48;;;;;;;;;;;;;;;26.21;39.03;96057.25;4237772;27;5658;-67
2023/06/13 12:11:52;;;;;;;;;;;;;;;26.22;38.97;96053.44;4232525;27;5769;-68
2023/06/13 12:13:55;;;;;;;;;;;;;;;26.23;38.84;96055.81;4232056;27;5654;-68
2023/06/13 12:15:58;;;;;;;;;;;;;;;26.24;38.89;96043.06;4236924;27;5775;-67
2023/06/13 12:18:02;;;;;;;;;;;;;;;26.29;38.66;96048.38;4250448;27;5723;-68
2023/06/13 12:20:10;;;;;;;;;;;;;;;26.31;38.25;96046.94;4234825;27;5647;-68
2023/06/13 12:22:15;;;;;;;;;;;;;;;26.32;38.13;96047.75;4239868;27;5649;-68
2023/06/13 12:24:23;;;;;;;;;;;;;;;26.35;38.48;96052.53;4250627;27;5621;-67
2023/06/13 12:26:28;;;;;;;;;;;;;;;26.37;38.17;96044.91;4250350;27;5094;-68
2023/06/13 12:28:35;;;;;;;;;;;;;;;26.40;38.02;96044.31;4250814;27;5799;-68
2023/06/13 12:30:39;;;;;;;;;;;;;;;26.40;37.80;96049.75;4250041;27;7151;-68
2023/06/13 12:32:44;;;;;;;;;;;;;;;26.40;38.18;96044.31;4239327;27;5883;-68
2023/06/13 12:34:47;;;;;;;;;;;;;;;26.40;37.71;96038.91;4236111;27;5654;-68
2023/06/13 12:36:50;;;;;;;;;;;;;;;26.42;37.65;96036.66;4226787;28;5746;-68
2023/06/13 12:38:53;;;;;;;;;;;;;;;26.43;37.64;96042.88;4229225;27;5639;-67
2023/06/13 12:40:58;;;;;;;;;;;;;;;26.43;37.74;96035.56;4234412;28;5732;-68
2023/06/13 12:43:03;;;;;;;;;;;;;;;26.46;37.73;96036.84;4246589;27;5652;-68
2023/06/13 12:45:07;;;;;;;;;;;;;;;26.46;37.40;96032.22;4251508;27;5696;-68
2023/06/13 12:47:12;;;;;;;;;;;;;;;26.48;37.74;96027.28;4251710;27;5708;-68
2023/06/13 12:49:19;;;;;;;;;;;;;;;26.50;37.40;96027.75;4249456;27;5633;-68
2023/06/13 12:51:28;;;;;;;;;;;;;;;26.51;37.59;96025.88;4240559;27;5632;-68
2023/06/13 12:53:32;;;;;;;;;;;;;;;26.51;37.47;96023.97;4239984;27;5654;-68
2023/06/13 12:55:36;;;;;;;;;;;;;;;26.53;37.44;96029.84;4234041;28;5659;-68
2023/06/13 12:57:40;;;;;;;;;;;;;;;26.52;37.34;96025.56;4235420;27;5669;-68
2023/06/13 12:59:46;;;;;;;;;;;;;;;26.53;37.27;96019.00;4237528;27;5765;-68
2023/06/13 13:01:49;;;;;;;;;;;;;;;26.53;37.04;96013.59;4234890;27;5646;-69
2023/06/13 13:03:52;;;;;;;;;;;;;;;26.57;37.02;96013.75;4243740;27;5654;-69
2023/06/13 13:05:56;;;;;;;;;;;;;;;26.56;37.10;96010.25;4233413;28;6391;-69
2023/06/13 13:07:59;;;;;;;;;;;;;;;26.58;37.34;96008.03;4232346;27;6621;-67
2023/06/13 13:10:06;;;;;;;;;;;;;;;26.59;37.24;96012.31;4220560;28;5649;-69
2023/06/13 13:12:10;;;;;;;;;;;;;;;26.61;37.05;96007.38;4232033;27;5662;-69
2023/06/13 13:14:15;;;;;;;;;;;;;;;26.62;36.87;96002.78;4225553;28;5722;-68
2023/06/13 13:16:18;;;;;;;;;;;;;;;26.63;36.83;95999.75;4216941;28;5762;-68
2023/06/13 13:18:20;;;;;;;;;;;;;;;26.63;37.04;95994.34;4223872;27;5745;-69
2023/06/13 13:20:24;;;;;;;;;;;;;;;26.63;36.69;95988.91;4232983;28;5900;-68
2023/06/13 13:22:27;;;;;;;;;;;;;;;26.66;36.68;95995.63;4233696;27;5650;-68
2023/06/13 13:24:30;;;;;;;;;;;;;;;26.69;36.51;95982.22;4234240;28;5669;-69
2023/06/13 13:26:38;;;;;;;;;;;;;;;26.70;36.31;95993.84;4237494;28;5721;-69
2023/06/13 13:28:40;;;;;;;;;;;;;;;26.70;36.22;95983.00;4236539;28;5638;-69
2023/06/13 13:30:45;;;;;;;;;;;;;;;26.70;36.42;95983.00;4237248;28;5747;-69
2023/06/13 13:33:03;;;;;;;;;;;;;;;26.72;36.51;95985.41;4236918;28;5930;-69
2023/06/13 13:35:08;;;;;;;;;;;;;;;26.73;36.33;95984.28;4240842;27;5640;-68
2023/06/13 13:37:11;;;;;;;;;;;;;;;26.76;36.28;95975.53;4254525;27;5629;-69
2023/06/13 13:39:16;;;;;;;;;;;;;;;26.77;36.34;95982.56;4239686;27;5786;-69
2023/06/13 13:41:20;;;;;;;;;;;;;;;26.77;36.06;95972.50;4234494;27;5654;-68
2023/06/13 13:43:23;;;;;;;;;;;;;;;26.79;36.47;95980.31;4234488;27;5782;-68
2023/06/13 13:45:26;;;;;;;;;;;;;;;26.79;36.34;95974.91;4237189;28;5673;-68
2023/06/13 13:47:30;;;;;;;;;;;;;;;26.81;36.40;95978.09;4237061;28;5710;-68
2023/06/13 13:49:34;;;;;;;;;;;;;;;26.82;36.27;95985.09;4236878;27;5682;-67
2023/06/13 13:51:37;;;;;;;;;;;;;;;26.82;36.49;95980.47;4228031;27;5650;-68
2023/06/13 13:53:40;;;;;;;;;;;;;;;26.84;36.18;95977.44;4224392;28;5116;-68
2023/06/13 13:55:43;;;;;;;;;;;;;;;26.83;36.21;95981.28;4233341;28;5667;-68
2023/06/13 13:57:46;;;;;;;;;;;;;;;26.82;36.04;95982.41;4227133;28;5642;-68
2023/06/13 13:59:50;;;;;;;;;;;;;;;26.83;36.56;95973.94;4232965;28;5788;-68
2023/06/13 14:01:53;;;;;;;;;;;;;;;26.85;36.23;95974.44;4233360;27;5650;-68
2023/06/13 14:03:57;;;;;;;;;;;;;;;26.87;36.12;95971.41;4228235;28;5748;-68
2023/06/13 14:06:00;;;;;;;;;;;;;;;26.88;36.31;95964.88;4228703;27;5763;-68
2023/06/13 14:08:03;;;;;;;;;;;;;;;26.89;36.32;95974.59;4234076;28;5654;-69
2023/06/13 14:10:08;;;;;;;;;;;;;;;26.92;36.21;95973.97;4229190;28;6264;-69
2023/06/13 14:12:11;;;;;;;;;;;;;;;26.95;36.14;95965.97;4227859;28;5733;-69
2023/06/13 14:14:14;;;;;;;;;;;;;;;26.94;36.05;95969.81;4227590;28;5952;-69
2023/06/13 14:16:18;;;;;;;;;;;;;;;26.95;35.88;95976.81;4220337;28;5671;-69
2023/06/13 14:18:21;;;;;;;;;;;;;;;26.95;35.96;95967.91;4234687;28;5745;-69
2023/06/13 14:20:26;;;;;;;;;;;;;;;26.96;35.78;95970.31;4233931;28;6446;-69
2023/06/13 14:22:30;;;;;;;;;;;;;;;26.97;35.68;95968.41;4229730;28;5852;-68
2023/06/13 14:24:36;;;;;;;;;;;;;;;26.98;35.91;95962.66;4232447;28;5650;-69
2023/06/13 14:26:39;;;;;;;;;;;;;;;27.00;35.65;95956.91;4236187;28;5812;-69
2023/06/13 14:28:42;;;;;;;;;;;;;;;27.00;35.54;95959.63;4223082;28;5665;-69
2023/06/13 14:30:45;;;;;;;;;;;;;;;27.03;35.87;95963.63;4223954;28;5646;-71
2023/06/13 14:32:49;;;;;;;;;;;;;;;27.03;35.75;95964.44;4231602;28;5837;-69
2023/06/13 14:34:52;;;;;;;;;;;;;;;27.01;36.16;95957.69;4233377;28;5760;-70
2023/06/13 14:36:57;;;;;;;;;;;;;;;26.98;36.26;95964.56;4232279;27;5744;-69
2023/06/13 14:39:05;;;;;;;;;;;;;;;26.97;36.24;95969.19;4234975;28;5642;-67
2023/06/13 14:41:08;;;;;;;;;;;;;;;26.96;36.26;95964.09;4228152;28;5668;-68
2023/06/13 14:43:11;;;;;;;;;;;;;;;26.95;36.13;95965.19;4227875;28;5817;-68
2023/06/13 14:45:15;;;;;;;;;;;;;;;26.94;36.49;95950.81;4227257;28;5743;-67
2023/06/13 14:47:18;;;;;;;;;;;;;;;26.94;36.48;95955.44;4227498;28;5736;-68
2023/06/13 14:49:21;;;;;;;;;;;;;;;26.94;36.43;95956.25;4227649;28;5892;-68
2023/06/13 14:51:24;;;;;;;;;;;;;;;26.96;36.40;95954.03;4227042;28;5741;-69
2023/06/13 14:53:30;;;;;;;;;;;;;;;26.98;36.48;95954.50;4226908;27;5749;-68
2023/06/13 14:55:33;;;;;;;;;;;;;;;27.01;36.29;95961.22;4225161;28;6842;-68
2023/06/13 14:57:36;;;;;;;;;;;;;;;27.03;36.49;95964.44;4224711;28;5777;-69
2023/06/13 14:59:39;;;;;;;;;;;;;;;27.02;36.84;95954.69;4230057;28;5668;-68
2023/06/13 15:01:42;;;;;;;;;;;;;;;27.03;36.99;95961.72;4228834;27;7198;-69
2023/06/13 15:03:46;;;;;;;;;;;;;;;27.05;37.19;95961.41;4229016;27;5756;-69
2023/06/13 15:05:49;;;;;;;;;;;;;;;27.06;37.26;95965.69;4223455;28;5840;-69
2023/06/13 15:07:52;;;;;;;;;;;;;;;27.06;37.73;95976.56;4221090;28;5846;-68
2023/06/13 15:09:57;;;;;;;;;;;;;;;27.03;37.84;95983.41;4230213;28;5661;-69
2023/06/13 15:12:03;;;;;;;;;;;;;;;26.96;38.45;95980.38;4224472;28;5731;-68
2023/06/13 15:14:07;;;;;;;;;;;;;;;26.90;38.37;95978.91;4227301;28;6447;-68
2023/06/13 15:16:11;;;;;;;;;;;;;;;26.89;38.35;95971.91;4228856;28;5843;-69
2023/06/13 15:18:14;;;;;;;;;;;;;;;26.90;38.80;95970.78;4227428;28;5762;-69
2023/06/13 15:20:18;;;;;;;;;;;;;;;26.89;38.84;95964.56;4224238;28;5757;-69
2023/06/13 15:22:21;;;;;;;;;;;;;;;26.89;38.97;95985.44;4225443;28;5645;-69
2023/06/13 15:24:25;;;;;;;;;;;;;;;26.87;38.82;95971.41;4227682;28;5868;-69
2023/06/13 15:26:30;;;;;;;;;;;;;;;26.87;39.14;95977.63;4226248;28;5869;-69
2023/06/13 15:28:33;;;;;;;;;;;;;;;26.87;39.10;95974.94;4220965;28;5828;-69
2023/06/13 15:30:36;;;;;;;;;;;;;;;26.88;39.47;95967.59;4224351;28;6474;-69
2023/06/13 15:32:39;;;;;;;;;;;;;;;26.91;39.14;95975.06;4227890;28;5781;-69
2023/06/13 15:34:43;;;;;;;;;;;;;;;26.92;39.22;95973.97;4220818;28;5667;-68
2023/06/13 15:36:47;;;;;;;;;;;;;;;26.85;39.32;95965.50;4221299;28;5751;-68
2023/06/13 15:38:50;;;;;;;;;;;;;;;26.81;39.70;95973.47;4223110;28;5771;-69
2023/06/13 15:40:52;;;;;;;;;;;;;;;26.80;39.88;95966.44;4223221;28;5816;-69
2023/06/13 15:42:57;;;;;;;;;;;;;;;26.77;39.94;95966.28;4231240;28;5674;-68
2023/06/13 15:45:00;;;;;;;;;;;;;;;26.74;39.76;95975.88;4226161;28;5124;-67
2023/06/13 15:47:03;;;;;;;;;;;;;;;26.72;39.95;95966.44;4224183;28;5758;-68
2023/06/13 15:49:06;;;;;;;;;;;;;;;26.67;40.08;95970.91;4220487;27;5646;-69
2023/06/13 15:51:09;;;;;;;;;;;;;;;26.65;40.37;95969.63;4227089;28;5714;-68
2023/06/13 15:53:11;;;;;;;;;;;;;;;26.63;40.49;95967.22;4225334;28;5759;-70
2023/06/13 15:55:14;;;;;;;;;;;;;;;26.66;40.23;95969.31;4221844;28;5662;-69
2023/06/13 15:57:17;;;;;;;;;;;;;;;26.69;40.27;95970.56;4225031;27;5801;-69
2023/06/13 15:59:22;;;;;;;;;;;;;;;26.72;40.38;95963.72;4223468;27;6576;-69
2023/06/13 16:01:25;;;;;;;;;;;;;;;26.74;40.25;95964.22;4218606;27;5794;-69
2023/06/13 16:03:28;;;;;;;;;;;;;;;26.74;40.25;95956.88;4228566;28;5861;-69
2023/06/13 16:05:32;;;;;;;;;;;;;;;26.78;40.38;95954.34;4223458;28;5805;-68
2023/06/13 16:07:34;;;;;;;;;;;;;;;26.82;40.43;95955.28;4224428;28;5667;-65
2023/06/13 16:09:37;;;;;;;;;;;;;;;26.83;40.48;95948.75;4221545;27;5821;-67
2023/06/13 16:11:41;;;;;;;;;;;;;;;26.84;40.26;95953.88;4225982;27;5856;-68
2023/06/13 16:13:44;;;;;;;;;;;;;;;26.84;40.63;95950.34;4223013;27;5802;-68